sensor_id;sensor_type;location;lat;lon;timestamp;P1;durP1;ratioP1;P2;durP2;ratioP2
22480;SDS011;11407;56.964;-2.212;2022-08-20T00:01:02;3.23;;;1.07;;
22480;SDS011;11407;56.964;-2.212;2022-08-20T00:03:30;2.30;;;0.90;;
22480;SDS011;11407;56.964;-2.212;2022-08-20T00:08:44;1.23;;;0.93;;
22480;SDS011;11407;56.964;-2.212;2022-08-20T00:11:11;1.57;;;1.00;;
22480;SDS011;11407;56.964;-2.212;2022-08-20T00:13:41;2.03;;;1.07;;
22480;SDS011;11407;56.964;-2.212;2022-08-20T00:16:09;1.77;;;0.90;;
22480;SDS011;11407;56.964;-2.212;2022-08-20T00:18:36;1.70;;;0.70;;
22480;SDS011;11407;56.964;-2.212;2022-08-20T00:21:04;0.70;;;0.70;;
22480;SDS011;11407;56.964;-2.212;2022-08-20T00:23:32;4.17;;;0.90;;
22480;SDS011;11407;56.964;-2.212;2022-08-20T00:26:00;1.10;;;0.60;;
22480;SDS011;11407;56.964;-2.212;2022-08-20T00:28:25;1.70;;;0.80;;
22480;SDS011;11407;56.964;-2.212;2022-08-20T00:30:51;1.60;;;0.90;;
22480;SDS011;11407;56.964;-2.212;2022-08-20T00:33:18;1.63;;;0.80;;
22480;SDS011;11407;56.964;-2.212;2022-08-20T00:35:46;1.40;;;1.00;;
22480;SDS011;11407;56.964;-2.212;2022-08-20T00:38:14;2.00;;;0.90;;
22480;SDS011;11407;56.964;-2.212;2022-08-20T00:40:44;2.77;;;0.90;;
22480;SDS011;11407;56.964;-2.212;2022-08-20T00:43:24;1.93;;;0.90;;
22480;SDS011;11407;56.964;-2.212;2022-08-20T00:45:50;3.03;;;0.93;;
22480;SDS011;11407;56.964;-2.212;2022-08-20T00:48:19;3.70;;;1.00;;
22480;SDS011;11407;56.964;-2.212;2022-08-20T00:50:45;1.93;;;0.93;;
22480;SDS011;11407;56.964;-2.212;2022-08-20T00:53:12;3.27;;;1.00;;
22480;SDS011;11407;56.964;-2.212;2022-08-20T00:55:38;1.77;;;0.90;;
22480;SDS011;11407;56.964;-2.212;2022-08-20T00:58:06;2.37;;;1.00;;
22480;SDS011;11407;56.964;-2.212;2022-08-20T01:00:36;1.13;;;0.80;;
22480;SDS011;11407;56.964;-2.212;2022-08-20T01:03:07;2.23;;;0.93;;
22480;SDS011;11407;56.964;-2.212;2022-08-20T01:05:38;3.07;;;0.90;;
22480;SDS011;11407;56.964;-2.212;2022-08-20T01:08:06;2.07;;;0.93;;
22480;SDS011;11407;56.964;-2.212;2022-08-20T01:10:35;2.50;;;1.00;;
22480;SDS011;11407;56.964;-2.212;2022-08-20T01:13:06;2.47;;;0.90;;
22480;SDS011;11407;56.964;-2.212;2022-08-20T01:15:36;2.53;;;1.20;;
22480;SDS011;11407;56.964;-2.212;2022-08-20T01:18:04;2.87;;;1.03;;
22480;SDS011;11407;56.964;-2.212;2022-08-20T01:20:42;1.20;;;0.80;;
22480;SDS011;11407;56.964;-2.212;2022-08-20T01:28:40;2.00;;;1.00;;
22480;SDS011;11407;56.964;-2.212;2022-08-20T01:31:14;2.10;;;0.90;;
22480;SDS011;11407;56.964;-2.212;2022-08-20T01:33:52;1.47;;;0.90;;
22480;SDS011;11407;56.964;-2.212;2022-08-20T01:36:26;1.90;;;0.80;;
22480;SDS011;11407;56.964;-2.212;2022-08-20T01:38:57;2.27;;;0.90;;
22480;SDS011;11407;56.964;-2.212;2022-08-20T01:44:20;0.77;;;0.67;;
22480;SDS011;11407;56.964;-2.212;2022-08-20T01:46:47;0.80;;;0.70;;
22480;SDS011;11407;56.964;-2.212;2022-08-20T01:51:48;2.80;;;0.90;;
22480;SDS011;11407;56.964;-2.212;2022-08-20T01:54:15;2.67;;;0.83;;
22480;SDS011;11407;56.964;-2.212;2022-08-20T01:59:19;1.83;;;1.00;;
22480;SDS011;11407;56.964;-2.212;2022-08-20T02:01:45;1.83;;;1.07;;
22480;SDS011;11407;56.964;-2.212;2022-08-20T02:04:11;1.27;;;0.80;;
22480;SDS011;11407;56.964;-2.212;2022-08-20T02:06:40;1.43;;;0.90;;
22480;SDS011;11407;56.964;-2.212;2022-08-20T02:09:09;1.97;;;1.17;;
22480;SDS011;11407;56.964;-2.212;2022-08-20T02:11:36;1.30;;;1.20;;
22480;SDS011;11407;56.964;-2.212;2022-08-20T02:14:02;3.07;;;1.00;;
22480;SDS011;11407;56.964;-2.212;2022-08-20T02:16:33;1.53;;;0.80;;
22480;SDS011;11407;56.964;-2.212;2022-08-20T02:19:11;2.23;;;0.97;;
22480;SDS011;11407;56.964;-2.212;2022-08-20T02:21:42;1.00;;;0.90;;
22480;SDS011;11407;56.964;-2.212;2022-08-20T02:24:11;2.23;;;1.10;;
22480;SDS011;11407;56.964;-2.212;2022-08-20T02:26:37;2.77;;;0.90;;
22480;SDS011;11407;56.964;-2.212;2022-08-20T02:29:08;1.53;;;0.80;;
22480;SDS011;11407;56.964;-2.212;2022-08-20T02:31:36;2.53;;;0.80;;
22480;SDS011;11407;56.964;-2.212;2022-08-20T02:34:02;1.77;;;0.90;;
22480;SDS011;11407;56.964;-2.212;2022-08-20T02:36:29;1.70;;;1.00;;
22480;SDS011;11407;56.964;-2.212;2022-08-20T02:38:54;2.67;;;0.93;;
22480;SDS011;11407;56.964;-2.212;2022-08-20T02:41:20;3.17;;;1.00;;
22480;SDS011;11407;56.964;-2.212;2022-08-20T02:43:46;3.20;;;1.17;;
22480;SDS011;11407;56.964;-2.212;2022-08-20T02:46:12;1.23;;;0.90;;
22480;SDS011;11407;56.964;-2.212;2022-08-20T02:48:39;2.53;;;1.00;;
22480;SDS011;11407;56.964;-2.212;2022-08-20T02:51:06;3.70;;;1.00;;
22480;SDS011;11407;56.964;-2.212;2022-08-20T02:53:34;2.13;;;1.00;;
22480;SDS011;11407;56.964;-2.212;2022-08-20T02:56:05;1.13;;;0.80;;
22480;SDS011;11407;56.964;-2.212;2022-08-20T02:58:31;1.90;;;0.90;;
22480;SDS011;11407;56.964;-2.212;2022-08-20T03:00:57;2.93;;;1.00;;
22480;SDS011;11407;56.964;-2.212;2022-08-20T03:03:23;2.73;;;1.40;;
22480;SDS011;11407;56.964;-2.212;2022-08-20T03:05:50;3.17;;;0.90;;
22480;SDS011;11407;56.964;-2.212;2022-08-20T03:08:17;2.13;;;0.87;;
22480;SDS011;11407;56.964;-2.212;2022-08-20T03:10:44;3.97;;;1.00;;
22480;SDS011;11407;56.964;-2.212;2022-08-20T03:13:11;1.17;;;0.90;;
22480;SDS011;11407;56.964;-2.212;2022-08-20T03:15:39;3.23;;;0.90;;
22480;SDS011;11407;56.964;-2.212;2022-08-20T03:18:06;1.03;;;0.80;;
22480;SDS011;11407;56.964;-2.212;2022-08-20T03:20:32;3.30;;;1.20;;
22480;SDS011;11407;56.964;-2.212;2022-08-20T03:22:58;2.33;;;1.10;;
22480;SDS011;11407;56.964;-2.212;2022-08-20T03:25:24;2.53;;;1.20;;
22480;SDS011;11407;56.964;-2.212;2022-08-20T03:27:50;2.93;;;1.20;;
22480;SDS011;11407;56.964;-2.212;2022-08-20T03:30:16;3.67;;;1.00;;
22480;SDS011;11407;56.964;-2.212;2022-08-20T03:32:43;3.87;;;1.07;;
22480;SDS011;11407;56.964;-2.212;2022-08-20T03:35:10;1.80;;;1.00;;
22480;SDS011;11407;56.964;-2.212;2022-08-20T03:37:37;2.13;;;0.93;;
22480;SDS011;11407;56.964;-2.212;2022-08-20T03:40:08;3.77;;;1.47;;
22480;SDS011;11407;56.964;-2.212;2022-08-20T03:42:36;1.87;;;0.93;;
22480;SDS011;11407;56.964;-2.212;2022-08-20T03:45:05;6.07;;;1.10;;
22480;SDS011;11407;56.964;-2.212;2022-08-20T03:47:31;5.10;;;1.63;;
22480;SDS011;11407;56.964;-2.212;2022-08-20T03:49:58;4.20;;;1.40;;
22480;SDS011;11407;56.964;-2.212;2022-08-20T03:52:25;3.93;;;1.10;;
22480;SDS011;11407;56.964;-2.212;2022-08-20T03:54:53;2.20;;;1.07;;
22480;SDS011;11407;56.964;-2.212;2022-08-20T03:57:19;4.57;;;1.30;;
22480;SDS011;11407;56.964;-2.212;2022-08-20T03:59:44;1.87;;;1.00;;
22480;SDS011;11407;56.964;-2.212;2022-08-20T04:02:10;2.60;;;1.50;;
22480;SDS011;11407;56.964;-2.212;2022-08-20T04:04:36;3.47;;;1.17;;
22480;SDS011;11407;56.964;-2.212;2022-08-20T04:07:13;4.23;;;1.30;;
22480;SDS011;11407;56.964;-2.212;2022-08-20T04:09:41;4.83;;;1.40;;
22480;SDS011;11407;56.964;-2.212;2022-08-20T04:12:10;3.73;;;1.20;;
22480;SDS011;11407;56.964;-2.212;2022-08-20T04:14:37;3.67;;;1.23;;
22480;SDS011;11407;56.964;-2.212;2022-08-20T04:17:03;3.33;;;1.17;;
22480;SDS011;11407;56.964;-2.212;2022-08-20T04:19:34;6.17;;;1.30;;
22480;SDS011;11407;56.964;-2.212;2022-08-20T04:22:00;6.13;;;1.40;;
22480;SDS011;11407;56.964;-2.212;2022-08-20T04:24:26;4.70;;;1.43;;
22480;SDS011;11407;56.964;-2.212;2022-08-20T04:26:52;5.30;;;1.50;;
22480;SDS011;11407;56.964;-2.212;2022-08-20T04:29:19;3.73;;;1.20;;
22480;SDS011;11407;56.964;-2.212;2022-08-20T04:31:46;3.03;;;1.07;;
22480;SDS011;11407;56.964;-2.212;2022-08-20T04:34:11;3.47;;;1.20;;
22480;SDS011;11407;56.964;-2.212;2022-08-20T04:36:37;5.97;;;1.30;;
22480;SDS011;11407;56.964;-2.212;2022-08-20T04:39:03;2.77;;;1.17;;
22480;SDS011;11407;56.964;-2.212;2022-08-20T04:41:29;2.53;;;1.23;;
22480;SDS011;11407;56.964;-2.212;2022-08-20T04:43:55;3.57;;;1.37;;
22480;SDS011;11407;56.964;-2.212;2022-08-20T04:46:23;3.17;;;1.20;;
22480;SDS011;11407;56.964;-2.212;2022-08-20T04:48:52;2.63;;;0.90;;
22480;SDS011;11407;56.964;-2.212;2022-08-20T04:51:18;5.87;;;1.30;;
22480;SDS011;11407;56.964;-2.212;2022-08-20T04:53:44;5.03;;;1.30;;
22480;SDS011;11407;56.964;-2.212;2022-08-20T04:56:10;4.33;;;1.33;;
22480;SDS011;11407;56.964;-2.212;2022-08-20T04:58:37;3.23;;;1.00;;
22480;SDS011;11407;56.964;-2.212;2022-08-20T05:01:08;3.40;;;1.10;;
22480;SDS011;11407;56.964;-2.212;2022-08-20T05:03:36;5.17;;;1.30;;
22480;SDS011;11407;56.964;-2.212;2022-08-20T05:06:04;2.20;;;0.97;;
22480;SDS011;11407;56.964;-2.212;2022-08-20T05:08:31;6.03;;;1.50;;
22480;SDS011;11407;56.964;-2.212;2022-08-20T05:10:58;3.90;;;1.27;;
22480;SDS011;11407;56.964;-2.212;2022-08-20T05:13:24;3.83;;;1.20;;
22480;SDS011;11407;56.964;-2.212;2022-08-20T05:15:50;4.73;;;1.60;;
22480;SDS011;11407;56.964;-2.212;2022-08-20T05:18:17;6.03;;;1.27;;
22480;SDS011;11407;56.964;-2.212;2022-08-20T05:20:44;4.77;;;1.67;;
22480;SDS011;11407;56.964;-2.212;2022-08-20T05:23:11;7.23;;;1.70;;
22480;SDS011;11407;56.964;-2.212;2022-08-20T05:25:39;8.77;;;1.20;;
22480;SDS011;11407;56.964;-2.212;2022-08-20T05:28:07;3.77;;;1.10;;
22480;SDS011;11407;56.964;-2.212;2022-08-20T05:30:37;4.90;;;1.53;;
22480;SDS011;11407;56.964;-2.212;2022-08-20T05:33:08;2.53;;;1.00;;
22480;SDS011;11407;56.964;-2.212;2022-08-20T05:35:35;2.63;;;1.10;;
22480;SDS011;11407;56.964;-2.212;2022-08-20T05:38:06;3.97;;;1.17;;
22480;SDS011;11407;56.964;-2.212;2022-08-20T05:40:35;4.00;;;1.10;;
22480;SDS011;11407;56.964;-2.212;2022-08-20T05:43:01;5.07;;;1.50;;
22480;SDS011;11407;56.964;-2.212;2022-08-20T05:45:29;4.37;;;1.13;;
22480;SDS011;11407;56.964;-2.212;2022-08-20T05:47:55;3.03;;;1.17;;
22480;SDS011;11407;56.964;-2.212;2022-08-20T05:50:22;5.53;;;1.40;;
22480;SDS011;11407;56.964;-2.212;2022-08-20T05:52:48;1.63;;;1.20;;
22480;SDS011;11407;56.964;-2.212;2022-08-20T05:55:13;4.43;;;1.40;;
22480;SDS011;11407;56.964;-2.212;2022-08-20T05:57:39;4.07;;;1.40;;
22480;SDS011;11407;56.964;-2.212;2022-08-20T06:00:06;8.90;;;1.97;;
22480;SDS011;11407;56.964;-2.212;2022-08-20T06:02:37;4.87;;;1.83;;
22480;SDS011;11407;56.964;-2.212;2022-08-20T06:05:22;11.53;;;1.97;;
22480;SDS011;11407;56.964;-2.212;2022-08-20T06:07:48;4.87;;;1.77;;
22480;SDS011;11407;56.964;-2.212;2022-08-20T06:10:14;5.43;;;1.50;;
22480;SDS011;11407;56.964;-2.212;2022-08-20T06:12:41;8.07;;;2.10;;
22480;SDS011;11407;56.964;-2.212;2022-08-20T06:15:08;7.70;;;2.10;;
22480;SDS011;11407;56.964;-2.212;2022-08-20T06:17:34;4.37;;;2.07;;
22480;SDS011;11407;56.964;-2.212;2022-08-20T06:20:00;6.33;;;1.93;;
22480;SDS011;11407;56.964;-2.212;2022-08-20T06:22:30;8.30;;;2.30;;
22480;SDS011;11407;56.964;-2.212;2022-08-20T06:24:56;7.60;;;2.27;;
22480;SDS011;11407;56.964;-2.212;2022-08-20T06:27:21;5.40;;;1.67;;
22480;SDS011;11407;56.964;-2.212;2022-08-20T06:29:47;5.93;;;2.07;;
22480;SDS011;11407;56.964;-2.212;2022-08-20T06:32:14;6.63;;;2.07;;
22480;SDS011;11407;56.964;-2.212;2022-08-20T06:34:39;9.70;;;2.30;;
22480;SDS011;11407;56.964;-2.212;2022-08-20T06:37:15;7.30;;;2.17;;
22480;SDS011;11407;56.964;-2.212;2022-08-20T06:39:45;6.93;;;2.27;;
22480;SDS011;11407;56.964;-2.212;2022-08-20T06:42:11;6.93;;;2.27;;
22480;SDS011;11407;56.964;-2.212;2022-08-20T06:44:37;7.50;;;2.17;;
22480;SDS011;11407;56.964;-2.212;2022-08-20T06:47:03;9.33;;;2.23;;
22480;SDS011;11407;56.964;-2.212;2022-08-20T06:49:29;8.17;;;2.10;;
22480;SDS011;11407;56.964;-2.212;2022-08-20T06:51:55;5.07;;;1.90;;
22480;SDS011;11407;56.964;-2.212;2022-08-20T06:54:21;5.43;;;2.30;;
22480;SDS011;11407;56.964;-2.212;2022-08-20T06:56:46;7.37;;;2.20;;
22480;SDS011;11407;56.964;-2.212;2022-08-20T06:59:12;6.47;;;2.17;;
22480;SDS011;11407;56.964;-2.212;2022-08-20T07:01:38;4.63;;;1.93;;
22480;SDS011;11407;56.964;-2.212;2022-08-20T07:04:03;8.97;;;2.27;;
22480;SDS011;11407;56.964;-2.212;2022-08-20T07:06:29;7.40;;;1.97;;
22480;SDS011;11407;56.964;-2.212;2022-08-20T07:08:55;4.30;;;1.80;;
22480;SDS011;11407;56.964;-2.212;2022-08-20T07:11:21;3.50;;;1.80;;
22480;SDS011;11407;56.964;-2.212;2022-08-20T07:13:46;6.17;;;2.67;;
22480;SDS011;11407;56.964;-2.212;2022-08-20T07:16:13;4.90;;;2.10;;
22480;SDS011;11407;56.964;-2.212;2022-08-20T07:18:39;4.60;;;2.00;;
22480;SDS011;11407;56.964;-2.212;2022-08-20T07:21:04;4.60;;;1.80;;
22480;SDS011;11407;56.964;-2.212;2022-08-20T07:23:30;4.30;;;1.80;;
22480;SDS011;11407;56.964;-2.212;2022-08-20T07:25:56;5.50;;;2.03;;
22480;SDS011;11407;56.964;-2.212;2022-08-20T07:28:23;7.07;;;2.20;;
22480;SDS011;11407;56.964;-2.212;2022-08-20T07:30:52;4.63;;;2.00;;
22480;SDS011;11407;56.964;-2.212;2022-08-20T07:33:37;5.53;;;1.90;;
22480;SDS011;11407;56.964;-2.212;2022-08-20T07:36:04;6.67;;;1.83;;
22480;SDS011;11407;56.964;-2.212;2022-08-20T07:38:31;7.70;;;2.00;;
22480;SDS011;11407;56.964;-2.212;2022-08-20T07:41:01;4.53;;;1.93;;
22480;SDS011;11407;56.964;-2.212;2022-08-20T07:43:29;5.37;;;2.00;;
22480;SDS011;11407;56.964;-2.212;2022-08-20T07:45:55;6.97;;;2.00;;
22480;SDS011;11407;56.964;-2.212;2022-08-20T07:48:22;5.97;;;2.03;;
22480;SDS011;11407;56.964;-2.212;2022-08-20T07:51:00;8.93;;;2.37;;
22480;SDS011;11407;56.964;-2.212;2022-08-20T07:53:28;8.03;;;2.00;;
22480;SDS011;11407;56.964;-2.212;2022-08-20T07:55:54;4.57;;;1.80;;
22480;SDS011;11407;56.964;-2.212;2022-08-20T07:58:20;8.60;;;2.03;;
22480;SDS011;11407;56.964;-2.212;2022-08-20T08:00:47;9.37;;;2.47;;
22480;SDS011;11407;56.964;-2.212;2022-08-20T08:03:13;6.93;;;2.00;;
22480;SDS011;11407;56.964;-2.212;2022-08-20T08:05:40;7.20;;;1.93;;
22480;SDS011;11407;56.964;-2.212;2022-08-20T08:08:08;4.27;;;2.00;;
22480;SDS011;11407;56.964;-2.212;2022-08-20T08:10:40;4.77;;;2.00;;
22480;SDS011;11407;56.964;-2.212;2022-08-20T08:13:07;4.63;;;1.83;;
22480;SDS011;11407;56.964;-2.212;2022-08-20T08:15:36;5.10;;;1.97;;
22480;SDS011;11407;56.964;-2.212;2022-08-20T08:18:05;7.53;;;1.90;;
22480;SDS011;11407;56.964;-2.212;2022-08-20T08:20:36;5.47;;;1.57;;
22480;SDS011;11407;56.964;-2.212;2022-08-20T08:23:06;4.20;;;1.90;;
22480;SDS011;11407;56.964;-2.212;2022-08-20T08:25:34;4.13;;;1.80;;
22480;SDS011;11407;56.964;-2.212;2022-08-20T08:28:00;4.03;;;1.43;;
22480;SDS011;11407;56.964;-2.212;2022-08-20T08:30:27;4.90;;;1.80;;
22480;SDS011;11407;56.964;-2.212;2022-08-20T08:32:53;3.97;;;1.57;;
22480;SDS011;11407;56.964;-2.212;2022-08-20T08:35:37;4.43;;;1.70;;
22480;SDS011;11407;56.964;-2.212;2022-08-20T08:38:04;4.03;;;1.43;;
22480;SDS011;11407;56.964;-2.212;2022-08-20T08:40:30;3.90;;;1.20;;
22480;SDS011;11407;56.964;-2.212;2022-08-20T08:42:57;3.53;;;1.50;;
22480;SDS011;11407;56.964;-2.212;2022-08-20T08:45:28;3.10;;;1.43;;
22480;SDS011;11407;56.964;-2.212;2022-08-20T08:48:17;3.20;;;1.40;;
22480;SDS011;11407;56.964;-2.212;2022-08-20T08:50:44;3.87;;;1.47;;
22480;SDS011;11407;56.964;-2.212;2022-08-20T08:53:34;2.93;;;1.10;;
22480;SDS011;11407;56.964;-2.212;2022-08-20T08:56:04;2.07;;;1.10;;
22480;SDS011;11407;56.964;-2.212;2022-08-20T08:58:31;3.70;;;1.20;;
22480;SDS011;11407;56.964;-2.212;2022-08-20T09:01:03;4.97;;;1.40;;
22480;SDS011;11407;56.964;-2.212;2022-08-20T09:03:35;5.87;;;1.63;;
22480;SDS011;11407;56.964;-2.212;2022-08-20T09:06:03;5.77;;;1.43;;
22480;SDS011;11407;56.964;-2.212;2022-08-20T09:08:43;4.83;;;1.60;;
22480;SDS011;11407;56.964;-2.212;2022-08-20T09:11:20;4.03;;;1.20;;
22480;SDS011;11407;56.964;-2.212;2022-08-20T09:13:53;2.20;;;1.37;;
22480;SDS011;11407;56.964;-2.212;2022-08-20T09:16:19;2.77;;;1.40;;
22480;SDS011;11407;56.964;-2.212;2022-08-20T09:18:47;1.80;;;1.07;;
22480;SDS011;11407;56.964;-2.212;2022-08-20T09:21:13;3.57;;;1.27;;
22480;SDS011;11407;56.964;-2.212;2022-08-20T09:23:39;4.67;;;1.43;;
22480;SDS011;11407;56.964;-2.212;2022-08-20T09:26:05;4.03;;;1.40;;
22480;SDS011;11407;56.964;-2.212;2022-08-20T09:28:31;3.27;;;1.50;;
22480;SDS011;11407;56.964;-2.212;2022-08-20T09:30:57;4.30;;;1.47;;
22480;SDS011;11407;56.964;-2.212;2022-08-20T09:33:22;1.43;;;0.90;;
22480;SDS011;11407;56.964;-2.212;2022-08-20T09:35:48;2.70;;;1.20;;
22480;SDS011;11407;56.964;-2.212;2022-08-20T09:38:14;4.70;;;1.17;;
22480;SDS011;11407;56.964;-2.212;2022-08-20T09:40:39;2.77;;;1.13;;
22480;SDS011;11407;56.964;-2.212;2022-08-20T09:43:05;2.23;;;1.10;;
22480;SDS011;11407;56.964;-2.212;2022-08-20T09:45:31;5.17;;;1.20;;
22480;SDS011;11407;56.964;-2.212;2022-08-20T09:47:57;4.73;;;1.37;;
22480;SDS011;11407;56.964;-2.212;2022-08-20T09:50:24;2.03;;;1.00;;
22480;SDS011;11407;56.964;-2.212;2022-08-20T09:52:50;2.77;;;1.00;;
22480;SDS011;11407;56.964;-2.212;2022-08-20T09:55:36;4.67;;;1.20;;
22480;SDS011;11407;56.964;-2.212;2022-08-20T10:01:11;2.30;;;1.00;;
22480;SDS011;11407;56.964;-2.212;2022-08-20T10:03:39;2.57;;;1.20;;
22480;SDS011;11407;56.964;-2.212;2022-08-20T10:06:05;4.67;;;1.33;;
22480;SDS011;11407;56.964;-2.212;2022-08-20T10:08:31;3.77;;;1.40;;
22480;SDS011;11407;56.964;-2.212;2022-08-20T10:10:56;2.57;;;1.10;;
22480;SDS011;11407;56.964;-2.212;2022-08-20T10:13:22;3.37;;;1.10;;
22480;SDS011;11407;56.964;-2.212;2022-08-20T10:15:48;3.40;;;1.10;;
22480;SDS011;11407;56.964;-2.212;2022-08-20T10:18:13;2.37;;;1.07;;
22480;SDS011;11407;56.964;-2.212;2022-08-20T10:20:39;1.10;;;0.90;;
22480;SDS011;11407;56.964;-2.212;2022-08-20T10:23:05;2.10;;;1.10;;
22480;SDS011;11407;56.964;-2.212;2022-08-20T10:25:31;1.60;;;0.90;;
22480;SDS011;11407;56.964;-2.212;2022-08-20T10:27:56;2.30;;;0.73;;
22480;SDS011;11407;56.964;-2.212;2022-08-20T10:30:23;1.87;;;0.90;;
22480;SDS011;11407;56.964;-2.212;2022-08-20T10:32:48;1.10;;;0.70;;
22480;SDS011;11407;56.964;-2.212;2022-08-20T10:35:13;1.70;;;0.80;;
22480;SDS011;11407;56.964;-2.212;2022-08-20T10:37:39;2.00;;;0.87;;
22480;SDS011;11407;56.964;-2.212;2022-08-20T10:40:05;1.63;;;0.80;;
22480;SDS011;11407;56.964;-2.212;2022-08-20T10:42:32;1.80;;;0.90;;
22480;SDS011;11407;56.964;-2.212;2022-08-20T10:44:57;1.40;;;0.90;;
22480;SDS011;11407;56.964;-2.212;2022-08-20T10:47:24;1.53;;;1.00;;
22480;SDS011;11407;56.964;-2.212;2022-08-20T10:49:53;1.97;;;0.80;;
22480;SDS011;11407;56.964;-2.212;2022-08-20T10:52:21;3.80;;;0.90;;
22480;SDS011;11407;56.964;-2.212;2022-08-20T10:54:47;4.60;;;1.13;;
22480;SDS011;11407;56.964;-2.212;2022-08-20T10:57:16;3.37;;;1.13;;
22480;SDS011;11407;56.964;-2.212;2022-08-20T10:59:45;2.63;;;1.10;;
22480;SDS011;11407;56.964;-2.212;2022-08-20T11:02:11;2.87;;;1.20;;
22480;SDS011;11407;56.964;-2.212;2022-08-20T11:04:37;2.70;;;1.10;;
22480;SDS011;11407;56.964;-2.212;2022-08-20T11:07:23;4.03;;;1.33;;
22480;SDS011;11407;56.964;-2.212;2022-08-20T11:09:51;2.17;;;0.93;;
22480;SDS011;11407;56.964;-2.212;2022-08-20T11:12:18;2.50;;;1.10;;
22480;SDS011;11407;56.964;-2.212;2022-08-20T11:14:44;5.43;;;1.30;;
22480;SDS011;11407;56.964;-2.212;2022-08-20T11:17:11;1.77;;;0.97;;
22480;SDS011;11407;56.964;-2.212;2022-08-20T11:19:37;3.63;;;0.97;;
22480;SDS011;11407;56.964;-2.212;2022-08-20T11:22:04;3.73;;;1.10;;
22480;SDS011;11407;56.964;-2.212;2022-08-20T11:24:30;3.30;;;1.00;;
22480;SDS011;11407;56.964;-2.212;2022-08-20T11:26:55;4.73;;;1.40;;
22480;SDS011;11407;56.964;-2.212;2022-08-20T11:29:21;4.97;;;1.20;;
22480;SDS011;11407;56.964;-2.212;2022-08-20T11:31:46;2.20;;;0.87;;
22480;SDS011;11407;56.964;-2.212;2022-08-20T11:34:12;3.27;;;1.20;;
22480;SDS011;11407;56.964;-2.212;2022-08-20T11:36:38;3.23;;;1.07;;
22480;SDS011;11407;56.964;-2.212;2022-08-20T11:39:03;3.77;;;1.20;;
22480;SDS011;11407;56.964;-2.212;2022-08-20T11:41:29;3.30;;;1.03;;
22480;SDS011;11407;56.964;-2.212;2022-08-20T11:43:54;2.97;;;1.00;;
22480;SDS011;11407;56.964;-2.212;2022-08-20T11:46:20;5.10;;;1.20;;
22480;SDS011;11407;56.964;-2.212;2022-08-20T11:48:45;2.50;;;1.20;;
22480;SDS011;11407;56.964;-2.212;2022-08-20T11:51:11;4.60;;;1.27;;
22480;SDS011;11407;56.964;-2.212;2022-08-20T11:53:36;4.27;;;1.10;;
22480;SDS011;11407;56.964;-2.212;2022-08-20T11:56:02;2.43;;;0.93;;
22480;SDS011;11407;56.964;-2.212;2022-08-20T11:58:28;2.50;;;1.20;;
22480;SDS011;11407;56.964;-2.212;2022-08-20T12:00:53;2.17;;;1.10;;
22480;SDS011;11407;56.964;-2.212;2022-08-20T12:03:18;3.63;;;1.10;;
22480;SDS011;11407;56.964;-2.212;2022-08-20T12:05:44;3.40;;;1.10;;
22480;SDS011;11407;56.964;-2.212;2022-08-20T12:08:11;1.83;;;0.87;;
22480;SDS011;11407;56.964;-2.212;2022-08-20T12:10:38;3.00;;;1.40;;
22480;SDS011;11407;56.964;-2.212;2022-08-20T12:13:04;4.27;;;1.20;;
22480;SDS011;11407;56.964;-2.212;2022-08-20T12:15:31;4.27;;;0.90;;
22480;SDS011;11407;56.964;-2.212;2022-08-20T12:18:00;2.20;;;0.80;;
22480;SDS011;11407;56.964;-2.212;2022-08-20T12:20:33;1.60;;;0.90;;
22480;SDS011;11407;56.964;-2.212;2022-08-20T12:22:59;1.97;;;0.80;;
22480;SDS011;11407;56.964;-2.212;2022-08-20T12:25:25;1.83;;;0.80;;
22480;SDS011;11407;56.964;-2.212;2022-08-20T12:27:51;2.60;;;1.07;;
22480;SDS011;11407;56.964;-2.212;2022-08-20T12:30:20;2.87;;;0.97;;
22480;SDS011;11407;56.964;-2.212;2022-08-20T12:32:47;6.83;;;1.10;;
22480;SDS011;11407;56.964;-2.212;2022-08-20T12:35:13;2.77;;;0.90;;
22480;SDS011;11407;56.964;-2.212;2022-08-20T12:37:41;7.83;;;1.03;;
22480;SDS011;11407;56.964;-2.212;2022-08-20T12:40:09;1.60;;;0.83;;
22480;SDS011;11407;56.964;-2.212;2022-08-20T12:42:37;2.47;;;0.73;;
22480;SDS011;11407;56.964;-2.212;2022-08-20T12:45:03;2.50;;;0.80;;
22480;SDS011;11407;56.964;-2.212;2022-08-20T12:47:31;1.90;;;1.00;;
22480;SDS011;11407;56.964;-2.212;2022-08-20T12:50:08;3.87;;;1.00;;
22480;SDS011;11407;56.964;-2.212;2022-08-20T12:52:38;2.50;;;0.97;;
22480;SDS011;11407;56.964;-2.212;2022-08-20T12:55:05;3.07;;;0.97;;
22480;SDS011;11407;56.964;-2.212;2022-08-20T12:57:35;4.07;;;1.00;;
22480;SDS011;11407;56.964;-2.212;2022-08-20T13:00:05;1.33;;;0.83;;
22480;SDS011;11407;56.964;-2.212;2022-08-20T13:02:34;1.73;;;0.80;;
22480;SDS011;11407;56.964;-2.212;2022-08-20T13:05:00;2.63;;;0.90;;
22480;SDS011;11407;56.964;-2.212;2022-08-20T13:07:25;3.53;;;0.80;;
22480;SDS011;11407;56.964;-2.212;2022-08-20T13:09:51;2.40;;;0.90;;
22480;SDS011;11407;56.964;-2.212;2022-08-20T13:12:16;1.33;;;0.70;;
22480;SDS011;11407;56.964;-2.212;2022-08-20T13:14:42;3.03;;;0.93;;
22480;SDS011;11407;56.964;-2.212;2022-08-20T13:17:07;4.03;;;0.80;;
22480;SDS011;11407;56.964;-2.212;2022-08-20T13:19:34;1.53;;;0.90;;
22480;SDS011;11407;56.964;-2.212;2022-08-20T13:22:01;1.43;;;0.70;;
22480;SDS011;11407;56.964;-2.212;2022-08-20T13:24:27;2.00;;;0.70;;
22480;SDS011;11407;56.964;-2.212;2022-08-20T13:26:53;2.30;;;0.77;;
22480;SDS011;11407;56.964;-2.212;2022-08-20T13:29:18;2.43;;;0.87;;
22480;SDS011;11407;56.964;-2.212;2022-08-20T13:31:45;2.13;;;0.90;;
22480;SDS011;11407;56.964;-2.212;2022-08-20T13:34:10;1.30;;;0.77;;
22480;SDS011;11407;56.964;-2.212;2022-08-20T13:36:36;2.07;;;0.90;;
22480;SDS011;11407;56.964;-2.212;2022-08-20T13:39:03;1.47;;;0.80;;
22480;SDS011;11407;56.964;-2.212;2022-08-20T13:41:30;2.60;;;0.83;;
22480;SDS011;11407;56.964;-2.212;2022-08-20T13:43:55;3.43;;;0.80;;
22480;SDS011;11407;56.964;-2.212;2022-08-20T13:46:21;2.77;;;0.80;;
22480;SDS011;11407;56.964;-2.212;2022-08-20T13:48:46;1.60;;;0.73;;
22480;SDS011;11407;56.964;-2.212;2022-08-20T13:51:11;3.53;;;0.93;;
22480;SDS011;11407;56.964;-2.212;2022-08-20T13:53:37;2.40;;;0.70;;
22480;SDS011;11407;56.964;-2.212;2022-08-20T13:56:02;5.70;;;1.00;;
22480;SDS011;11407;56.964;-2.212;2022-08-20T13:58:28;2.30;;;1.27;;
22480;SDS011;11407;56.964;-2.212;2022-08-20T14:00:53;4.00;;;1.20;;
22480;SDS011;11407;56.964;-2.212;2022-08-20T14:03:19;1.47;;;0.93;;
22480;SDS011;11407;56.964;-2.212;2022-08-20T14:05:44;2.10;;;0.87;;
22480;SDS011;11407;56.964;-2.212;2022-08-20T14:08:14;3.07;;;0.90;;
22480;SDS011;11407;56.964;-2.212;2022-08-20T14:10:44;2.27;;;0.87;;
22480;SDS011;11407;56.964;-2.212;2022-08-20T14:13:13;1.50;;;0.80;;
22480;SDS011;11407;56.964;-2.212;2022-08-20T14:15:38;2.70;;;0.90;;
22480;SDS011;11407;56.964;-2.212;2022-08-20T14:18:03;2.17;;;0.80;;
22480;SDS011;11407;56.964;-2.212;2022-08-20T14:20:30;0.87;;;0.70;;
22480;SDS011;11407;56.964;-2.212;2022-08-20T14:22:57;4.50;;;1.10;;
22480;SDS011;11407;56.964;-2.212;2022-08-20T14:25:25;2.67;;;0.90;;
22480;SDS011;11407;56.964;-2.212;2022-08-20T14:27:51;1.77;;;0.77;;
22480;SDS011;11407;56.964;-2.212;2022-08-20T14:30:21;3.33;;;1.27;;
22480;SDS011;11407;56.964;-2.212;2022-08-20T14:32:49;1.97;;;1.00;;
22480;SDS011;11407;56.964;-2.212;2022-08-20T14:35:15;1.90;;;0.77;;
22480;SDS011;11407;56.964;-2.212;2022-08-20T14:37:42;2.07;;;0.93;;
22480;SDS011;11407;56.964;-2.212;2022-08-20T14:40:12;2.07;;;0.90;;
22480;SDS011;11407;56.964;-2.212;2022-08-20T14:42:40;3.30;;;0.90;;
22480;SDS011;11407;56.964;-2.212;2022-08-20T14:45:07;2.83;;;1.00;;
22480;SDS011;11407;56.964;-2.212;2022-08-20T14:47:35;3.63;;;1.00;;
22480;SDS011;11407;56.964;-2.212;2022-08-20T14:50:05;3.03;;;1.03;;
22480;SDS011;11407;56.964;-2.212;2022-08-20T14:52:36;3.93;;;1.07;;
22480;SDS011;11407;56.964;-2.212;2022-08-20T14:55:06;3.20;;;1.10;;